createdAt,value
2022-08-07T00:00:28.222Z,3.20
2022-08-07T00:03:09.278Z,3.70
2022-08-07T00:05:38.061Z,3.30
2022-08-07T00:08:07.822Z,3.30
2022-08-07T00:10:47.895Z,3.10
2022-08-07T00:13:26.678Z,2.80
2022-08-07T00:15:55.595Z,3.70
2022-08-07T00:18:27.028Z,3.10
2022-08-07T00:21:01.904Z,3.30
2022-08-07T00:23:33.549Z,3.20
2022-08-07T00:26:12.820Z,3.00
2022-08-07T00:28:55.347Z,3.20
2022-08-07T00:31:37.167Z,2.90
2022-08-07T00:34:08.797Z,3.20
2022-08-07T00:36:42.911Z,3.60
2022-08-07T00:39:16.472Z,3.40
2022-08-07T00:42:01.742Z,3.30
2022-08-07T00:44:34.902Z,3.50
2022-08-07T00:47:16.013Z,3.40
2022-08-07T00:50:19.248Z,3.40
2022-08-07T00:52:47.469Z,3.60
2022-08-07T00:55:17.438Z,3.50
2022-08-07T00:57:55.534Z,3.70
2022-08-07T01:00:25.374Z,4.30
2022-08-07T01:02:54.778Z,3.70
2022-08-07T01:05:24.533Z,3.70
2022-08-07T01:07:53.009Z,3.40
2022-08-07T01:10:23.713Z,3.80
2022-08-07T01:12:54.686Z,4.20
2022-08-07T01:15:35.664Z,3.60
2022-08-07T01:18:16.800Z,4.00
2022-08-07T01:20:57.444Z,3.40
2022-08-07T01:23:38.586Z,3.70
2022-08-07T01:26:13.646Z,4.00
2022-08-07T01:28:51.838Z,4.00
2022-08-07T01:31:42.811Z,4.30
2022-08-07T01:34:18.885Z,4.00
2022-08-07T01:36:52.924Z,4.30
2022-08-07T01:39:40.342Z,3.80
2022-08-07T01:42:38.598Z,3.20
2022-08-07T01:45:17.830Z,3.70
2022-08-07T01:48:20.695Z,3.80
2022-08-07T01:50:43.030Z,3.80
2022-08-07T01:53:21.094Z,4.10
2022-08-07T01:56:01.848Z,3.70
2022-08-07T01:58:41.029Z,3.90
2022-08-07T02:01:25.318Z,3.60
2022-08-07T02:04:16.200Z,3.60
2022-08-07T02:06:48.895Z,3.40
2022-08-07T02:09:33.904Z,4.10
2022-08-07T02:12:29.073Z,4.30
2022-08-07T02:15:01.603Z,4.40
2022-08-07T02:17:49.555Z,4.10
2022-08-07T02:20:23.837Z,3.70
2022-08-07T02:23:00.118Z,4.10
2022-08-07T02:25:32.223Z,4.10
2022-08-07T02:28:24.756Z,3.90
2022-08-07T02:30:56.334Z,3.80
2022-08-07T02:33:42.000Z,3.80
2022-08-07T02:36:30.487Z,4.20
2022-08-07T02:39:15.980Z,4.20
2022-08-07T02:41:54.418Z,3.40
2022-08-07T02:44:26.877Z,4.50
2022-08-07T02:47:00.778Z,4.00
2022-08-07T02:49:57.433Z,4.60
2022-08-07T02:52:30.968Z,4.40
2022-08-07T02:55:28.287Z,4.80
2022-08-07T02:58:12.009Z,4.40
2022-08-07T03:00:46.989Z,4.00
2022-08-07T03:03:21.160Z,4.70
2022-08-07T03:08:26.912Z,4.70
2022-08-07T03:11:00.260Z,4.70
2022-08-07T03:13:39.146Z,5.10
2022-08-07T03:16:22.855Z,6.00
2022-08-07T03:18:57.527Z,5.50
2022-08-07T03:21:26.855Z,7.50
2022-08-07T03:24:19.990Z,7.50
2022-08-07T03:26:58.624Z,6.80
2022-08-07T03:29:46.190Z,7.30
2022-08-07T03:32:49.098Z,6.80
2022-08-07T03:35:43.979Z,6.50
2022-08-07T03:38:21.292Z,6.40
2022-08-07T03:41:01.596Z,6.00
2022-08-07T03:43:33.547Z,6.50
2022-08-07T03:46:18.255Z,6.50
2022-08-07T03:49:02.502Z,6.00
2022-08-07T03:51:47.640Z,5.70
2022-08-07T03:54:35.289Z,5.30
2022-08-07T03:57:08.119Z,4.70
2022-08-07T03:59:37.792Z,5.70
2022-08-07T04:02:15.393Z,5.10
2022-08-07T04:04:45.193Z,5.10
2022-08-07T04:07:17.730Z,5.40
2022-08-07T04:09:53.083Z,5.60
2022-08-07T04:12:28.769Z,5.20
2022-08-07T04:15:00.280Z,5.50
2022-08-07T04:18:31.097Z,5.10
2022-08-07T04:20:19.752Z,5.30
2022-08-07T04:22:53.200Z,5.20
2022-08-07T04:25:23.969Z,4.70
2022-08-07T04:27:59.389Z,4.50
2022-08-07T04:30:35.571Z,4.40
2022-08-07T04:33:18.434Z,4.30
2022-08-07T04:35:51.048Z,4.50
2022-08-07T04:38:22.224Z,3.80
2022-08-07T04:40:52.722Z,4.80
2022-08-07T04:44:12.889Z,3.80
2022-08-07T04:47:04.210Z,3.80
2022-08-07T04:52:52.427Z,3.90
2022-08-07T04:58:14.632Z,4.10
2022-08-07T04:59:18.302Z,4.00
2022-08-07T05:02:06.478Z,3.80
2022-08-07T05:05:52.163Z,4.60
2022-08-07T05:08:45.855Z,4.10
2022-08-07T05:11:24.554Z,4.80
2022-08-07T05:14:55.794Z,4.40
2022-08-07T05:16:54.178Z,4.10
2022-08-07T05:19:44.106Z,4.20
2022-08-07T05:22:26.804Z,4.90
2022-08-07T05:25:00.529Z,4.20
2022-08-07T05:28:03.163Z,4.80
2022-08-07T05:30:29.988Z,5.10
2022-08-07T05:33:02.345Z,4.70
2022-08-07T05:35:42.263Z,4.40
2022-08-07T05:38:12.778Z,4.70
2022-08-07T05:41:21.733Z,4.40
2022-08-07T05:44:11.648Z,4.80
2022-08-07T05:46:43.741Z,4.70
2022-08-07T05:49:14.267Z,3.90
2022-08-07T05:51:47.202Z,3.80
2022-08-07T05:54:31.248Z,4.30
2022-08-07T05:57:09.410Z,3.60
2022-08-07T05:59:57.199Z,3.70
2022-08-07T06:02:31.427Z,3.70
2022-08-07T06:05:15.778Z,3.60
2022-08-07T06:08:05.361Z,3.60
2022-08-07T06:10:38.830Z,3.20
2022-08-07T06:13:13.323Z,3.20
2022-08-07T06:15:45.736Z,4.20
2022-08-07T06:18:22.367Z,3.40
2022-08-07T06:22:12.512Z,3.70
2022-08-07T06:24:37.886Z,3.40
2022-08-07T06:26:33.988Z,4.00
2022-08-07T06:29:04.186Z,3.40
2022-08-07T06:31:38.503Z,2.80
2022-08-07T06:34:19.831Z,2.80
2022-08-07T06:36:51.889Z,2.50
2022-08-07T06:40:13.719Z,2.30
2022-08-07T06:42:19.549Z,1.60
2022-08-07T06:45:19.501Z,1.50
2022-08-07T06:47:58.798Z,1.90
2022-08-07T06:50:43.387Z,1.40
2022-08-07T06:55:28.865Z,1.20
2022-08-07T06:56:15.490Z,1.30
2022-08-07T07:00:13.246Z,0.90
2022-08-07T07:01:41.985Z,1.00
2022-08-07T07:04:27.990Z,0.70
2022-08-07T07:07:10.694Z,0.60
2022-08-07T07:09:49.175Z,0.60
2022-08-07T07:12:41.823Z,0.90
2022-08-07T07:15:24.023Z,0.60
2022-08-07T07:18:47.022Z,0.80
2022-08-07T07:21:19.813Z,1.20
2022-08-07T07:24:08.192Z,1.10
2022-08-07T07:26:41.218Z,1.20
2022-08-07T07:29:56.342Z,1.60
2022-08-07T07:32:16.852Z,0.70
2022-08-07T07:34:48.616Z,1.20
2022-08-07T07:37:45.216Z,0.70
2022-08-07T07:40:16.450Z,0.80
2022-08-07T07:42:47.292Z,0.60
2022-08-07T07:46:35.490Z,0.60
2022-08-07T07:48:34.779Z,0.60
2022-08-07T07:51:07.522Z,0.60
2022-08-07T07:53:51.238Z,0.50
2022-08-07T07:56:30.491Z,0.50
2022-08-07T07:59:01.891Z,0.80
2022-08-07T08:02:02.378Z,0.60
2022-08-07T08:04:27.512Z,0.90
2022-08-07T08:06:56.484Z,0.70
2022-08-07T08:09:31.896Z,0.50
2022-08-07T08:12:51.264Z,0.80
2022-08-07T08:15:09.929Z,0.60
2022-08-07T08:17:58.088Z,0.60
2022-08-07T08:20:32.061Z,0.60
2022-08-07T08:23:21.088Z,0.60
2022-08-07T08:26:19.769Z,0.70
2022-08-07T08:28:51.990Z,1.20
2022-08-07T08:31:59.193Z,1.10
2022-08-07T08:34:26.994Z,0.70
2022-08-07T08:36:58.442Z,0.80
2022-08-07T08:39:39.867Z,1.10
2022-08-07T08:42:27.802Z,0.90
2022-08-07T08:45:04.192Z,1.00
2022-08-07T08:48:02.582Z,0.80
2022-08-07T08:50:44.734Z,1.00
2022-08-07T08:53:29.393Z,1.00
2022-08-07T08:56:03.110Z,1.10
2022-08-07T08:58:57.933Z,0.80
2022-08-07T09:01:58.551Z,0.70
2022-08-07T09:05:06.195Z,0.90
2022-08-07T09:07:46.203Z,1.50
2022-08-07T09:10:38.009Z,0.90
2022-08-07T09:13:37.557Z,1.00
2022-08-07T09:16:22.697Z,0.90
2022-08-07T09:18:58.601Z,0.80
2022-08-07T09:22:09.683Z,0.90
2022-08-07T09:25:00.365Z,0.80
2022-08-07T09:28:00.436Z,1.00
2022-08-07T09:30:37.478Z,0.80
2022-08-07T09:33:40.706Z,0.90
2022-08-07T09:36:28.581Z,1.20
2022-08-07T09:39:55.207Z,1.40
2022-08-07T09:42:41.745Z,1.10
2022-08-07T09:47:52.709Z,0.90
2022-08-07T09:48:12.255Z,0.60
2022-08-07T09:52:10.926Z,1.00
2022-08-07T09:54:27.254Z,0.70
2022-08-07T09:57:14.515Z,0.90
2022-08-07T10:00:00.262Z,0.70
2022-08-07T10:03:08.511Z,0.80
2022-08-07T10:06:25.714Z,0.80
2022-08-07T10:09:05.436Z,1.10
2022-08-07T10:12:11.787Z,1.00
2022-08-07T10:15:03.997Z,1.10
2022-08-07T10:18:01.403Z,1.00
2022-08-07T10:20:50.357Z,0.80
2022-08-07T10:24:05.725Z,0.90
2022-08-07T10:27:12.646Z,0.90
2022-08-07T10:29:53.275Z,0.90
2022-08-07T10:32:51.161Z,0.90
2022-08-07T10:35:55.507Z,0.80
2022-08-07T10:38:36.088Z,1.00
2022-08-07T10:41:51.862Z,0.80
2022-08-07T10:44:45.494Z,0.70
2022-08-07T10:47:53.374Z,1.00
2022-08-07T10:50:29.737Z,1.00
2022-08-07T10:53:08.921Z,1.10
2022-08-07T10:55:50.595Z,1.20
2022-08-07T10:58:49.696Z,0.80
2022-08-07T11:01:35.678Z,0.80
2022-08-07T11:04:37.802Z,0.70
2022-08-07T11:07:56.092Z,0.60
2022-08-07T11:10:21.674Z,1.00
2022-08-07T11:14:41.966Z,0.90
2022-08-07T11:16:10.461Z,0.80
2022-08-07T11:21:32.258Z,0.80
2022-08-07T11:24:39.495Z,0.80
2022-08-07T11:28:00.924Z,0.70
2022-08-07T11:30:19.293Z,0.60
2022-08-07T11:33:59.548Z,0.70
2022-08-07T11:36:41.296Z,0.80
2022-08-07T11:40:00.631Z,0.70
2022-08-07T11:42:29.386Z,0.70
2022-08-07T11:45:35.495Z,0.80
2022-08-07T11:48:31.654Z,0.60
2022-08-07T11:51:35.069Z,0.80
2022-08-07T11:54:54.629Z,0.80
2022-08-07T11:57:58.185Z,0.80
2022-08-07T12:00:20.052Z,0.70
2022-08-07T12:03:41.456Z,0.60
2022-08-07T12:06:37.532Z,0.50
2022-08-07T12:09:47.108Z,0.50
2022-08-07T12:12:25.413Z,0.70
2022-08-07T12:15:17.333Z,0.80
2022-08-07T12:18:16.172Z,0.80
2022-08-07T12:21:14.927Z,0.70
2022-08-07T12:24:05.419Z,0.70
2022-08-07T12:26:49.432Z,0.60
2022-08-07T12:29:38.955Z,0.60
2022-08-07T12:32:18.381Z,0.60
2022-08-07T12:34:53.429Z,0.50
2022-08-07T12:37:28.358Z,0.70
2022-08-07T12:40:46.709Z,0.60
2022-08-07T12:46:26.482Z,0.70
2022-08-07T12:49:25.340Z,0.70
2022-08-07T12:52:18.108Z,0.60
2022-08-07T12:55:05.469Z,0.70
2022-08-07T12:58:00.335Z,0.80
2022-08-07T13:00:41.625Z,0.70
2022-08-07T13:03:53.526Z,0.80
2022-08-07T13:07:01.169Z,0.50
2022-08-07T13:10:19.561Z,0.80
2022-08-07T13:12:59.827Z,0.80
2022-08-07T13:16:06.711Z,0.90
2022-08-07T13:19:00.975Z,0.60
2022-08-07T13:21:54.315Z,0.90
2022-08-07T13:24:54.270Z,0.60
2022-08-07T13:28:12.514Z,0.70
2022-08-07T13:30:41.358Z,0.70
2022-08-07T13:34:31.828Z,0.70
2022-08-07T13:36:08.549Z,0.90
2022-08-07T13:39:02.827Z,0.80
2022-08-07T13:41:42.317Z,0.70
2022-08-07T13:44:12.952Z,0.80
2022-08-07T13:46:49.706Z,0.60
2022-08-07T13:50:32.844Z,0.80
2022-08-07T13:52:31.743Z,0.60
2022-08-07T13:54:58.208Z,0.70
2022-08-07T13:57:37.639Z,0.90
2022-08-07T14:00:13.352Z,0.50
2022-08-07T14:02:58.713Z,0.80
2022-08-07T14:05:37.335Z,0.70
2022-08-07T14:08:09.009Z,1.00
2022-08-07T14:10:41.976Z,0.80
2022-08-07T14:13:18.685Z,0.60
2022-08-07T14:15:56.907Z,0.60
2022-08-07T14:18:57.367Z,0.80
2022-08-07T14:22:04.161Z,0.60
2022-08-07T14:24:49.632Z,0.60
2022-08-07T14:28:11.801Z,0.90
2022-08-07T14:30:32.745Z,0.80
2022-08-07T14:33:04.733Z,0.70
2022-08-07T14:35:44.746Z,0.70
2022-08-07T14:38:26.665Z,0.60
2022-08-07T14:41:04.318Z,0.80
2022-08-07T14:46:32.050Z,0.80
2022-08-07T14:52:04.989Z,0.50
2022-08-07T14:54:41.939Z,0.50
2022-08-07T14:57:19.259Z,0.50
2022-08-07T15:00:05.465Z,0.70
2022-08-07T15:02:39.253Z,0.60
2022-08-07T15:05:20.269Z,0.60
2022-08-07T15:07:52.789Z,0.50
2022-08-07T15:10:29.919Z,0.60
2022-08-07T15:13:11.383Z,0.50
2022-08-07T15:15:52.422Z,0.70
2022-08-07T15:25:15.718Z,0.50
2022-08-07T15:27:26.020Z,0.60
2022-08-07T15:30:14.633Z,0.50
2022-08-07T15:32:51.133Z,1.00
2022-08-07T15:36:01.407Z,0.70
2022-08-07T15:44:15.305Z,0.60
2022-08-07T15:46:49.992Z,0.40
2022-08-07T15:50:06.077Z,0.60
2022-08-07T15:52:30.673Z,0.70
2022-08-07T15:55:03.839Z,0.60
2022-08-07T15:57:47.785Z,0.50
2022-08-07T16:00:31.237Z,0.60
2022-08-07T16:03:21.835Z,0.50
2022-08-07T16:05:59.191Z,0.60
2022-08-07T16:08:37.881Z,0.70
2022-08-07T16:11:43.557Z,0.60
2022-08-07T16:14:17.204Z,0.60
2022-08-07T16:17:02.796Z,0.50
2022-08-07T16:19:59.256Z,0.60
2022-08-07T16:22:55.329Z,0.50
2022-08-07T16:25:27.724Z,0.60
2022-08-07T16:29:18.359Z,0.50
2022-08-07T16:31:50.060Z,0.70
2022-08-07T16:34:48.770Z,0.60
2022-08-07T16:38:06.586Z,0.40
2022-08-07T16:40:31.904Z,0.60
2022-08-07T16:44:03.812Z,0.60
2022-08-07T16:47:04.768Z,0.50
2022-08-07T16:50:27.789Z,0.70
2022-08-07T16:53:57.240Z,0.70
2022-08-07T16:56:17.066Z,0.70
2022-08-07T16:59:14.871Z,0.60
2022-08-07T17:02:02.885Z,0.50
2022-08-07T17:04:37.030Z,0.70
2022-08-07T17:07:55.088Z,0.60
2022-08-07T17:10:33.062Z,0.50
2022-08-07T17:13:24.727Z,0.70
2022-08-07T17:16:25.050Z,0.90
2022-08-07T17:19:17.387Z,0.60
2022-08-07T17:22:42.619Z,0.70
2022-08-07T17:25:19.268Z,0.60
2022-08-07T17:27:57.738Z,0.70
2022-08-07T17:30:31.488Z,0.60
2022-08-07T17:34:08.989Z,0.70
2022-08-07T17:36:20.378Z,0.70
2022-08-07T17:39:57.951Z,0.80
2022-08-07T17:42:58.216Z,0.60
2022-08-07T17:45:35.513Z,0.80
2022-08-07T17:48:12.895Z,0.50
2022-08-07T17:51:02.347Z,0.60
2022-08-07T17:54:00.824Z,0.60
2022-08-07T17:56:30.983Z,0.70
2022-08-07T17:59:16.839Z,0.70
2022-08-07T18:02:01.593Z,0.70
2022-08-07T18:04:35.200Z,0.70
2022-08-07T18:07:22.556Z,0.70
2022-08-07T18:10:32.099Z,0.70
2022-08-07T18:13:00.894Z,1.00
2022-08-07T18:15:40.631Z,0.80
2022-08-07T18:18:45.130Z,0.60
2022-08-07T18:21:41.976Z,1.20
2022-08-07T18:24:43.133Z,0.70
2022-08-07T18:27:44.680Z,0.70
2022-08-07T18:30:53.529Z,0.80
2022-08-07T18:33:54.853Z,0.80
2022-08-07T18:36:33.746Z,0.70
2022-08-07T18:40:05.575Z,1.00
2022-08-07T18:42:16.336Z,0.90
2022-08-07T18:45:40.112Z,0.80
2022-08-07T18:49:03.739Z,0.80
2022-08-07T18:51:14.982Z,0.70
2022-08-07T18:53:54.255Z,0.90
2022-08-07T18:56:40.330Z,0.80
2022-08-07T18:59:47.232Z,0.80
2022-08-07T19:02:42.474Z,0.70
2022-08-07T19:06:03.267Z,0.80
2022-08-07T19:08:21.721Z,0.80
2022-08-07T19:11:35.232Z,0.80
2022-08-07T19:14:20.225Z,0.90
2022-08-07T19:17:06.660Z,0.70
2022-08-07T19:19:50.967Z,0.90
2022-08-07T19:22:31.259Z,1.00
2022-08-07T19:25:06.376Z,0.80
2022-08-07T19:28:58.188Z,1.10
2022-08-07T19:31:05.815Z,1.00
2022-08-07T19:33:33.363Z,1.10
2022-08-07T19:36:05.757Z,1.10
2022-08-07T19:38:53.618Z,1.00
2022-08-07T19:41:39.143Z,1.00
2022-08-07T19:44:21.419Z,1.20
2022-08-07T19:46:57.964Z,1.00
2022-08-07T19:49:57.073Z,0.90
2022-08-07T19:52:22.500Z,1.10
2022-08-07T19:54:56.423Z,1.80
2022-08-07T19:58:00.786Z,1.00
2022-08-07T20:00:28.261Z,1.10
2022-08-07T20:03:04.313Z,1.50
2022-08-07T20:06:00.019Z,0.80
2022-08-07T20:08:30.816Z,0.80
2022-08-07T20:11:10.054Z,0.90
2022-08-07T20:13:45.560Z,1.00
2022-08-07T20:16:34.774Z,0.90
2022-08-07T20:19:10.964Z,0.90
2022-08-07T20:21:47.545Z,0.90
2022-08-07T20:24:22.062Z,0.90
2022-08-07T20:26:54.461Z,0.90
2022-08-07T20:29:48.003Z,0.80
2022-08-07T20:32:25.470Z,1.00
2022-08-07T20:34:58.587Z,0.90
2022-08-07T20:37:33.620Z,1.00
2022-08-07T20:40:32.926Z,0.90
2022-08-07T20:43:00.966Z,1.10
2022-08-07T20:46:25.746Z,1.10
2022-08-07T20:48:29.727Z,1.10
2022-08-07T20:51:09.284Z,1.10
2022-08-07T20:54:04.420Z,1.20
2022-08-07T20:56:30.677Z,1.10
2022-08-07T20:59:05.281Z,0.90
2022-08-07T21:01:45.658Z,1.00
2022-08-07T21:04:27.921Z,1.10
2022-08-07T21:07:04.522Z,0.80
2022-08-07T21:09:53.290Z,1.00
2022-08-07T21:12:31.964Z,1.10
2022-08-07T21:15:05.594Z,0.80
2022-08-07T21:18:02.877Z,1.30
2022-08-07T21:20:33.299Z,0.90
2022-08-07T21:23:09.028Z,1.10
2022-08-07T21:25:56.298Z,2.50
2022-08-07T21:28:49.858Z,1.00
2022-08-07T21:31:50.140Z,1.00
2022-08-07T21:34:46.316Z,1.50
2022-08-07T21:37:57.871Z,1.20
2022-08-07T21:40:38.167Z,1.10
2022-08-07T21:43:56.380Z,1.10
2022-08-07T21:46:34.976Z,0.90
2022-08-07T21:49:21.632Z,0.90
2022-08-07T21:52:09.046Z,1.10
2022-08-07T21:55:10.512Z,1.10
2022-08-07T21:57:52.085Z,1.20
2022-08-07T22:00:25.107Z,0.90
2022-08-07T22:03:30.914Z,1.00
2022-08-07T22:06:06.718Z,0.80
2022-08-07T22:08:42.510Z,1.10
2022-08-07T22:11:17.676Z,1.20
2022-08-07T22:13:55.421Z,1.50
2022-08-07T22:16:44.940Z,1.30
2022-08-07T22:19:29.881Z,0.90
2022-08-07T22:22:27.536Z,1.30
2022-08-07T22:25:11.277Z,0.80
2022-08-07T22:28:30.241Z,0.80
2022-08-07T22:31:05.578Z,1.00
2022-08-07T22:33:57.181Z,1.00
2022-08-07T22:36:46.635Z,1.30
2022-08-07T22:40:08.493Z,1.20
2022-08-07T22:42:40.328Z,1.00
2022-08-07T22:46:04.779Z,1.10
2022-08-07T22:48:54.647Z,0.90
2022-08-07T22:51:22.317Z,1.00
2022-08-07T22:54:09.422Z,1.10
2022-08-07T22:56:52.765Z,1.00
2022-08-07T22:59:32.666Z,0.90
2022-08-07T23:02:39.391Z,1.10
2022-08-07T23:06:09.991Z,0.90
2022-08-07T23:08:30.231Z,0.90
2022-08-07T23:11:29.416Z,1.20
2022-08-07T23:14:56.236Z,1.00
2022-08-07T23:17:55.696Z,1.10
2022-08-07T23:20:53.142Z,1.40
2022-08-07T23:24:05.259Z,1.10
2022-08-07T23:26:30.106Z,0.90
2022-08-07T23:29:01.861Z,1.00
2022-08-07T23:32:50.163Z,1.10
2022-08-07T23:37:32.388Z,1.30
2022-08-07T23:40:12.923Z,0.90
2022-08-07T23:43:16.732Z,1.00
2022-08-07T23:46:12.355Z,1.00
2022-08-07T23:49:04.517Z,1.20
2022-08-07T23:53:02.157Z,1.20
2022-08-07T23:54:46.335Z,1.60
2022-08-07T23:57:28.213Z,1.20
